sensor_id;sensor_type;location;lat;lon;timestamp;pressure;altitude;pressure_sealevel;temperature;humidity
65175;BME280;51761;42.126;24.752;2023-04-10T00:02:24;99807.00;;;10.00;55.45
65175;BME280;51761;42.126;24.752;2023-04-10T00:04:49;99793.53;;;9.92;55.58
65175;BME280;51761;42.126;24.752;2023-04-10T00:07:14;99784.84;;;9.86;55.44
65175;BME280;51761;42.126;24.752;2023-04-10T00:09:41;99801.50;;;9.93;55.73
65175;BME280;51761;42.126;24.752;2023-04-10T00:12:06;99785.69;;;9.83;56.51
65175;BME280;51761;42.126;24.752;2023-04-10T00:14:32;99806.22;;;10.00;56.90
65175;BME280;51761;42.126;24.752;2023-04-10T00:16:58;99807.06;;;9.97;56.88
65175;BME280;51761;42.126;24.752;2023-04-10T00:19:23;99796.69;;;10.01;56.76
65175;BME280;51761;42.126;24.752;2023-04-10T00:21:48;99795.47;;;10.02;56.17
65175;BME280;51761;42.126;24.752;2023-04-10T00:24:14;99773.34;;;9.81;57.01
65175;BME280;51761;42.126;24.752;2023-04-10T00:26:39;99791.19;;;9.90;56.32
65175;BME280;51761;42.126;24.752;2023-04-10T00:29:05;99782.47;;;9.85;56.54
65175;BME280;51761;42.126;24.752;2023-04-10T00:31:31;99790.44;;;9.83;56.72
65175;BME280;51761;42.126;24.752;2023-04-10T00:33:56;99781.78;;;9.74;56.68
65175;BME280;51761;42.126;24.752;2023-04-10T00:36:22;99754.47;;;9.58;57.06
65175;BME280;51761;42.126;24.752;2023-04-10T00:38:48;99775.09;;;9.68;57.67
65175;BME280;51761;42.126;24.752;2023-04-10T00:41:16;99750.03;;;9.61;57.53
65175;BME280;51761;42.126;24.752;2023-04-10T00:43:43;99765.09;;;9.70;57.21
65175;BME280;51761;42.126;24.752;2023-04-10T00:46:08;99770.34;;;9.61;57.66
65175;BME280;51761;42.126;24.752;2023-04-10T00:48:34;99768.34;;;9.62;58.77
65175;BME280;51761;42.126;24.752;2023-04-10T00:51:00;99764.31;;;9.66;58.26
65175;BME280;51761;42.126;24.752;2023-04-10T00:53:27;99759.94;;;9.69;58.07
65175;BME280;51761;42.126;24.752;2023-04-10T00:55:53;99764.78;;;9.61;57.93
65175;BME280;51761;42.126;24.752;2023-04-10T00:58:19;99724.28;;;9.46;58.16
65175;BME280;51761;42.126;24.752;2023-04-10T01:00:46;99750.03;;;9.61;57.85
65175;BME280;51761;42.126;24.752;2023-04-10T01:03:12;99725.44;;;9.52;57.36
65175;BME280;51761;42.126;24.752;2023-04-10T01:06:17;99747.63;;;9.63;57.66
65175;BME280;51761;42.126;24.752;2023-04-10T01:08:58;99743.72;;;9.57;57.42
65175;BME280;51761;42.126;24.752;2023-04-10T01:11:38;99744.03;;;9.66;57.70
65175;BME280;51761;42.126;24.752;2023-04-10T01:16:53;99747.31;;;9.54;58.76
65175;BME280;51761;42.126;24.752;2023-04-10T01:21:58;99726.88;;;9.27;59.50
65175;BME280;51761;42.126;24.752;2023-04-10T01:24:54;99729.81;;;9.10;61.20
65175;BME280;51761;42.126;24.752;2023-04-10T01:27:59;99741.72;;;9.14;60.63
65175;BME280;51761;42.126;24.752;2023-04-10T01:30:31;99757.66;;;9.10;61.88
65175;BME280;51761;42.126;24.752;2023-04-10T01:32:58;99732.28;;;8.97;61.35
65175;BME280;51761;42.126;24.752;2023-04-10T01:35:27;99757.59;;;9.17;61.10
65175;BME280;51761;42.126;24.752;2023-04-10T01:37:56;99762.50;;;9.02;62.33
65175;BME280;51761;42.126;24.752;2023-04-10T01:40:23;99756.59;;;8.90;62.15
65175;BME280;51761;42.126;24.752;2023-04-10T01:42:54;99727.72;;;8.70;62.56
65175;BME280;51761;42.126;24.752;2023-04-10T01:45:23;99758.63;;;8.89;62.91
65175;BME280;51761;42.126;24.752;2023-04-10T01:47:50;99753.09;;;8.82;62.89
65175;BME280;51761;42.126;24.752;2023-04-10T01:50:16;99760.59;;;8.92;62.50
65175;BME280;51761;42.126;24.752;2023-04-10T01:52:43;99736.41;;;8.82;62.60
65175;BME280;51761;42.126;24.752;2023-04-10T01:55:13;99757.03;;;8.85;62.98
65175;BME280;51761;42.126;24.752;2023-04-10T01:57:39;99761.03;;;8.84;63.10
65175;BME280;51761;42.126;24.752;2023-04-10T02:00:05;99738.81;;;8.77;62.95
65175;BME280;51761;42.126;24.752;2023-04-10T02:02:32;99761.84;;;8.81;62.69
65175;BME280;51761;42.126;24.752;2023-04-10T02:04:58;99744.44;;;8.66;63.09
65175;BME280;51761;42.126;24.752;2023-04-10T02:07:40;99763.84;;;8.80;63.38
65175;BME280;51761;42.126;24.752;2023-04-10T02:10:36;99760.22;;;8.87;63.71
65175;BME280;51761;42.126;24.752;2023-04-10T02:13:06;99768.56;;;8.90;63.38
65175;BME280;51761;42.126;24.752;2023-04-10T02:15:35;99760.59;;;8.89;63.29
65175;BME280;51761;42.126;24.752;2023-04-10T02:18:01;99728.06;;;8.75;62.97
65175;BME280;51761;42.126;24.752;2023-04-10T02:20:32;99754.63;;;8.90;63.22
65175;BME280;51761;42.126;24.752;2023-04-10T02:22:59;99753.41;;;8.95;63.86
65175;BME280;51761;42.126;24.752;2023-04-10T02:25:31;99751.47;;;8.88;64.17
65175;BME280;51761;42.126;24.752;2023-04-10T02:27:57;99726.97;;;8.66;64.71
65175;BME280;51761;42.126;24.752;2023-04-10T02:30:23;99749.13;;;8.83;65.42
65175;BME280;51761;42.126;24.752;2023-04-10T02:32:49;99746.03;;;8.67;66.82
65175;BME280;51761;42.126;24.752;2023-04-10T02:35:14;99740.03;;;8.72;65.66
65175;BME280;51761;42.126;24.752;2023-04-10T02:37:40;99724.56;;;8.64;66.32
65175;BME280;51761;42.126;24.752;2023-04-10T02:40:07;99709.13;;;8.56;67.41
65175;BME280;51761;42.126;24.752;2023-04-10T02:42:33;99729.69;;;8.73;67.80
65175;BME280;51761;42.126;24.752;2023-04-10T02:44:59;99714.19;;;8.68;67.48
65175;BME280;51761;42.126;24.752;2023-04-10T02:47:24;99725.59;;;8.88;67.63
65175;BME280;51761;42.126;24.752;2023-04-10T02:49:50;99722.47;;;8.82;67.69
65175;BME280;51761;42.126;24.752;2023-04-10T02:52:15;99738.34;;;8.85;68.06
65175;BME280;51761;42.126;24.752;2023-04-10T02:54:41;99727.59;;;8.87;67.29
65175;BME280;51761;42.126;24.752;2023-04-10T02:57:07;99730.22;;;9.08;67.39
65175;BME280;51761;42.126;24.752;2023-04-10T02:59:32;99704.97;;;8.78;67.41
65175;BME280;51761;42.126;24.752;2023-04-10T03:01:58;99727.91;;;9.00;66.08
65175;BME280;51761;42.126;24.752;2023-04-10T03:04:23;99727.16;;;8.92;67.71
65175;BME280;51761;42.126;24.752;2023-04-10T03:06:49;99729.13;;;8.95;67.86
65175;BME280;51761;42.126;24.752;2023-04-10T03:09:14;99734.25;;;9.04;67.27
65175;BME280;51761;42.126;24.752;2023-04-10T03:11:40;99711.53;;;9.05;66.56
65175;BME280;51761;42.126;24.752;2023-04-10T03:14:06;99713.97;;;9.00;65.86
65175;BME280;51761;42.126;24.752;2023-04-10T03:16:34;99734.97;;;9.11;66.22
65175;BME280;51761;42.126;24.752;2023-04-10T03:18:59;99732.97;;;9.12;66.11
65175;BME280;51761;42.126;24.752;2023-04-10T03:21:25;99726.63;;;9.11;65.72
65175;BME280;51761;42.126;24.752;2023-04-10T03:23:51;99735.38;;;9.10;65.87
65175;BME280;51761;42.126;24.752;2023-04-10T03:26:17;99728.16;;;9.16;66.36
65175;BME280;51761;42.126;24.752;2023-04-10T03:28:42;99731.31;;;9.18;65.76
65175;BME280;51761;42.126;24.752;2023-04-10T03:31:08;99732.19;;;9.11;65.89
65175;BME280;51761;42.126;24.752;2023-04-10T03:33:34;99725.72;;;9.21;65.38
65175;BME280;51761;42.126;24.752;2023-04-10T03:36:00;99723.78;;;9.18;64.67
65175;BME280;51761;42.126;24.752;2023-04-10T03:38:26;99716.34;;;9.01;64.74
65175;BME280;51761;42.126;24.752;2023-04-10T03:40:51;99737.72;;;9.15;63.96
65175;BME280;51761;42.126;24.752;2023-04-10T03:43:18;99725.00;;;9.14;63.98
65175;BME280;51761;42.126;24.752;2023-04-10T03:45:43;99734.16;;;9.14;63.27
65175;BME280;51761;42.126;24.752;2023-04-10T03:48:09;99731.38;;;9.14;63.61
65175;BME280;51761;42.126;24.752;2023-04-10T03:50:34;99728.19;;;9.12;63.45
65175;BME280;51761;42.126;24.752;2023-04-10T03:53:00;99728.28;;;9.02;62.86
65175;BME280;51761;42.126;24.752;2023-04-10T03:55:25;99738.53;;;9.12;63.50
65175;BME280;51761;42.126;24.752;2023-04-10T03:57:51;99700.13;;;8.89;62.76
65175;BME280;51761;42.126;24.752;2023-04-10T04:00:17;99707.97;;;9.01;62.23
65175;BME280;51761;42.126;24.752;2023-04-10T04:02:43;99733.81;;;9.05;62.25
65175;BME280;51761;42.126;24.752;2023-04-10T04:05:08;99733.41;;;9.10;63.17
65175;BME280;51761;42.126;24.752;2023-04-10T04:07:34;99725.50;;;8.98;62.38
65175;BME280;51761;42.126;24.752;2023-04-10T04:10:00;99739.72;;;9.14;62.30
65175;BME280;51761;42.126;24.752;2023-04-10T04:12:26;99741.69;;;9.17;62.49
65175;BME280;51761;42.126;24.752;2023-04-10T04:14:51;99748.78;;;9.25;62.56
65175;BME280;51761;42.126;24.752;2023-04-10T04:17:17;99744.84;;;9.23;62.30
65175;BME280;51761;42.126;24.752;2023-04-10T04:19:42;99753.53;;;9.28;62.44
65175;BME280;51761;42.126;24.752;2023-04-10T04:22:08;99730.50;;;9.21;62.81
65175;BME280;51761;42.126;24.752;2023-04-10T04:24:34;99753.31;;;9.52;61.69
65175;BME280;51761;42.126;24.752;2023-04-10T04:26:59;99726.78;;;9.34;61.83
65175;BME280;51761;42.126;24.752;2023-04-10T04:29:25;99725.13;;;9.43;62.03
65175;BME280;51761;42.126;24.752;2023-04-10T04:31:51;99727.25;;;9.29;62.29
65175;BME280;51761;42.126;24.752;2023-04-10T04:34:16;99752.22;;;9.43;62.17
65175;BME280;51761;42.126;24.752;2023-04-10T04:36:42;99743.84;;;9.43;62.58
65175;BME280;51761;42.126;24.752;2023-04-10T04:39:07;99745.06;;;9.42;62.51
65175;BME280;51761;42.126;24.752;2023-04-10T04:41:33;99735.97;;;9.31;62.82
65175;BME280;51761;42.126;24.752;2023-04-10T04:44:00;99739.16;;;9.33;62.65
65175;BME280;51761;42.126;24.752;2023-04-10T04:46:26;99737.53;;;9.39;62.65
65175;BME280;51761;42.126;24.752;2023-04-10T04:48:51;99732.00;;;9.32;63.07
65175;BME280;51761;42.126;24.752;2023-04-10T04:51:17;99725.59;;;9.35;64.10
65175;BME280;51761;42.126;24.752;2023-04-10T04:53:42;99736.16;;;9.54;64.56
65175;BME280;51761;42.126;24.752;2023-04-10T04:56:08;99722.59;;;9.56;64.54
65175;BME280;51761;42.126;24.752;2023-04-10T04:58:33;99749.53;;;9.73;63.80
65175;BME280;51761;42.126;24.752;2023-04-10T05:00:59;99751.41;;;9.83;62.94
65175;BME280;51761;42.126;24.752;2023-04-10T05:03:25;99756.50;;;9.91;61.55
65175;BME280;51761;42.126;24.752;2023-04-10T05:05:53;99737.81;;;9.88;62.72
65175;BME280;51761;42.126;24.752;2023-04-10T05:08:18;99738.88;;;10.01;62.48
65175;BME280;51761;42.126;24.752;2023-04-10T05:10:44;99748.00;;;10.05;61.09
65175;BME280;51761;42.126;24.752;2023-04-10T05:13:09;99745.41;;;10.21;61.00
65175;BME280;51761;42.126;24.752;2023-04-10T05:15:35;99746.88;;;10.33;62.55
65175;BME280;51761;42.126;24.752;2023-04-10T05:18:00;99761.84;;;10.46;62.19
65175;BME280;51761;42.126;24.752;2023-04-10T05:20:26;99762.53;;;10.53;60.35
65175;BME280;51761;42.126;24.752;2023-04-10T05:22:51;99753.28;;;10.60;60.05
65175;BME280;51761;42.126;24.752;2023-04-10T05:25:17;99741.38;;;10.56;58.95
65175;BME280;51761;42.126;24.752;2023-04-10T05:27:43;99773.84;;;10.73;59.20
65175;BME280;51761;42.126;24.752;2023-04-10T05:30:09;99766.13;;;10.84;58.69
65175;BME280;51761;42.126;24.752;2023-04-10T05:32:34;99767.69;;;10.85;58.75
65175;BME280;51761;42.126;24.752;2023-04-10T05:35:00;99773.06;;;10.98;57.77
65175;BME280;51761;42.126;24.752;2023-04-10T05:37:25;99772.31;;;10.95;57.79
65175;BME280;51761;42.126;24.752;2023-04-10T05:39:51;99768.53;;;11.08;57.57
65175;BME280;51761;42.126;24.752;2023-04-10T05:42:16;99775.94;;;11.18;59.11
65175;BME280;51761;42.126;24.752;2023-04-10T05:44:43;99771.56;;;11.43;58.29
65175;BME280;51761;42.126;24.752;2023-04-10T05:47:09;99776.88;;;11.61;58.09
65175;BME280;51761;42.126;24.752;2023-04-10T05:49:35;99774.56;;;11.79;55.99
65175;BME280;51761;42.126;24.752;2023-04-10T05:52:00;99780.34;;;11.91;55.99
65175;BME280;51761;42.126;24.752;2023-04-10T05:54:26;99769.78;;;11.99;55.14
65175;BME280;51761;42.126;24.752;2023-04-10T05:56:51;99768.00;;;12.08;55.73
65175;BME280;51761;42.126;24.752;2023-04-10T05:59:16;99766.28;;;12.14;54.79
65175;BME280;51761;42.126;24.752;2023-04-10T06:01:43;99750.06;;;12.06;54.98
65175;BME280;51761;42.126;24.752;2023-04-10T06:04:08;99745.53;;;11.92;55.41
65175;BME280;51761;42.126;24.752;2023-04-10T06:06:34;99739.84;;;12.15;55.63
65175;BME280;51761;42.126;24.752;2023-04-10T06:09:00;99770.16;;;12.59;53.63
65175;BME280;51761;42.126;24.752;2023-04-10T06:11:25;99745.69;;;12.79;52.84
65175;BME280;51761;42.126;24.752;2023-04-10T06:13:51;99745.53;;;12.86;51.09
65175;BME280;51761;42.126;24.752;2023-04-10T06:16:17;99737.97;;;13.02;51.10
65175;BME280;51761;42.126;24.752;2023-04-10T06:18:42;99745.97;;;13.36;49.85
65175;BME280;51761;42.126;24.752;2023-04-10T06:21:08;99758.81;;;13.81;49.22
65175;BME280;51761;42.126;24.752;2023-04-10T06:23:33;99746.22;;;14.02;48.71
65175;BME280;51761;42.126;24.752;2023-04-10T06:26:00;99761.22;;;15.05;44.51
65175;BME280;51761;42.126;24.752;2023-04-10T06:28:25;99763.69;;;15.41;43.47
65175;BME280;51761;42.126;24.752;2023-04-10T06:30:51;99764.56;;;15.50;42.51
65175;BME280;51761;42.126;24.752;2023-04-10T06:33:17;99743.16;;;15.99;41.15
65175;BME280;51761;42.126;24.752;2023-04-10T06:35:42;99744.44;;;15.02;41.87
65175;BME280;51761;42.126;24.752;2023-04-10T06:38:08;99767.25;;;14.91;43.44
65175;BME280;51761;42.126;24.752;2023-04-10T06:40:33;99753.53;;;14.93;45.21
65175;BME280;51761;42.126;24.752;2023-04-10T06:43:00;99767.03;;;15.73;44.20
65175;BME280;51761;42.126;24.752;2023-04-10T06:45:25;99766.34;;;16.37;40.89
65175;BME280;51761;42.126;24.752;2023-04-10T06:47:51;99771.59;;;16.69;40.42
65175;BME280;51761;42.126;24.752;2023-04-10T06:50:17;99770.41;;;17.40;38.27
65175;BME280;51761;42.126;24.752;2023-04-10T06:52:46;99766.91;;;17.75;37.65
65175;BME280;51761;42.126;24.752;2023-04-10T06:55:12;99755.97;;;18.49;37.25
65175;BME280;51761;42.126;24.752;2023-04-10T06:57:38;99768.69;;;19.30;33.87
65175;BME280;51761;42.126;24.752;2023-04-10T07:00:05;99760.13;;;19.48;33.16
65175;BME280;51761;42.126;24.752;2023-04-10T07:02:31;99776.91;;;20.31;32.03
65175;BME280;51761;42.126;24.752;2023-04-10T07:04:56;99766.50;;;20.66;32.19
65175;BME280;51761;42.126;24.752;2023-04-10T07:07:22;99773.81;;;21.59;34.41
65175;BME280;51761;42.126;24.752;2023-04-10T07:09:48;99771.31;;;22.01;30.52
65175;BME280;51761;42.126;24.752;2023-04-10T07:12:13;99777.63;;;22.96;29.19
65175;BME280;51761;42.126;24.752;2023-04-10T07:14:39;99777.88;;;21.87;30.39
65175;BME280;51761;42.126;24.752;2023-04-10T07:17:04;99778.72;;;21.93;29.64
65175;BME280;51761;42.126;24.752;2023-04-10T07:19:30;99778.94;;;21.26;29.80
65175;BME280;51761;42.126;24.752;2023-04-10T07:21:55;99778.22;;;20.45;32.68
65175;BME280;51761;42.126;24.752;2023-04-10T07:24:21;99784.22;;;20.23;33.13
65175;BME280;51761;42.126;24.752;2023-04-10T07:26:47;99783.31;;;20.17;32.08
65175;BME280;51761;42.126;24.752;2023-04-10T07:29:12;99786.44;;;19.40;33.33
65175;BME280;51761;42.126;24.752;2023-04-10T07:31:38;99777.72;;;19.02;36.99
65175;BME280;51761;42.126;24.752;2023-04-10T07:34:04;99772.72;;;18.88;38.21
65175;BME280;51761;42.126;24.752;2023-04-10T07:36:30;99778.78;;;18.45;39.58
65175;BME280;51761;42.126;24.752;2023-04-10T07:38:56;99773.28;;;18.42;49.94
65175;BME280;51761;42.126;24.752;2023-04-10T07:41:22;99774.00;;;18.69;43.23
65175;BME280;51761;42.126;24.752;2023-04-10T07:43:48;99765.66;;;18.93;42.50
65175;BME280;51761;42.126;24.752;2023-04-10T07:46:16;99765.34;;;18.91;34.03
65175;BME280;51761;42.126;24.752;2023-04-10T07:48:41;99771.44;;;18.98;36.97
65175;BME280;51761;42.126;24.752;2023-04-10T07:51:07;99753.84;;;19.44;34.99
65175;BME280;51761;42.126;24.752;2023-04-10T07:53:37;99748.13;;;19.77;33.59
65175;BME280;51761;42.126;24.752;2023-04-10T07:56:03;99761.38;;;19.47;32.91
65175;BME280;51761;42.126;24.752;2023-04-10T07:58:29;99761.59;;;18.76;33.50
65175;BME280;51761;42.126;24.752;2023-04-10T08:00:55;99769.16;;;18.16;34.10
65175;BME280;51761;42.126;24.752;2023-04-10T08:03:21;99762.66;;;17.31;36.22
65175;BME280;51761;42.126;24.752;2023-04-10T08:05:47;99763.34;;;17.35;35.82
65175;BME280;51761;42.126;24.752;2023-04-10T08:08:15;99740.69;;;17.26;35.83
65175;BME280;51761;42.126;24.752;2023-04-10T08:10:40;99725.38;;;17.36;35.63
65175;BME280;51761;42.126;24.752;2023-04-10T08:13:06;99754.78;;;17.17;35.83
65175;BME280;51761;42.126;24.752;2023-04-10T08:15:32;99740.06;;;17.22;37.15
65175;BME280;51761;42.126;24.752;2023-04-10T08:17:57;99737.66;;;17.12;35.66
65175;BME280;51761;42.126;24.752;2023-04-10T08:20:22;99754.56;;;17.03;36.04
65175;BME280;51761;42.126;24.752;2023-04-10T08:22:48;99734.75;;;16.94;36.55
65175;BME280;51761;42.126;24.752;2023-04-10T08:25:13;99747.56;;;17.16;36.45
65175;BME280;51761;42.126;24.752;2023-04-10T08:27:39;99739.97;;;17.04;36.71
65175;BME280;51761;42.126;24.752;2023-04-10T08:30:05;99732.22;;;16.35;37.65
65175;BME280;51761;42.126;24.752;2023-04-10T08:32:31;99716.38;;;16.16;37.22
65175;BME280;51761;42.126;24.752;2023-04-10T08:34:57;99740.38;;;16.20;37.03
65175;BME280;51761;42.126;24.752;2023-04-10T08:37:22;99715.59;;;16.15;37.26
65175;BME280;51761;42.126;24.752;2023-04-10T08:39:48;99740.19;;;15.81;37.62
65175;BME280;51761;42.126;24.752;2023-04-10T08:42:14;99733.22;;;15.73;38.00
65175;BME280;51761;42.126;24.752;2023-04-10T08:44:39;99742.69;;;15.67;37.71
65175;BME280;51761;42.126;24.752;2023-04-10T08:47:07;99739.22;;;15.63;38.48
65175;BME280;51761;42.126;24.752;2023-04-10T08:49:59;99742.06;;;15.50;38.81
65175;BME280;51761;42.126;24.752;2023-04-10T08:52:28;99733.06;;;15.30;39.27
65175;BME280;51761;42.126;24.752;2023-04-10T08:54:56;99720.13;;;15.33;39.69
65175;BME280;51761;42.126;24.752;2023-04-10T08:57:24;99707.94;;;15.48;39.46
65175;BME280;51761;42.126;24.752;2023-04-10T08:59:51;99723.81;;;15.88;39.35
65175;BME280;51761;42.126;24.752;2023-04-10T09:02:17;99713.38;;;16.10;38.92
65175;BME280;51761;42.126;24.752;2023-04-10T09:04:50;99714.94;;;15.90;38.38
65175;BME280;51761;42.126;24.752;2023-04-10T09:07:18;99721.03;;;15.42;39.32
65175;BME280;51761;42.126;24.752;2023-04-10T09:09:44;99712.25;;;15.15;39.67
65175;BME280;51761;42.126;24.752;2023-04-10T09:12:11;99711.03;;;15.04;39.22
65175;BME280;51761;42.126;24.752;2023-04-10T09:14:40;99698.66;;;14.76;39.94
65175;BME280;51761;42.126;24.752;2023-04-10T09:17:31;99717.75;;;14.56;40.66
65175;BME280;51761;42.126;24.752;2023-04-10T09:19:57;99712.22;;;14.53;40.83
65175;BME280;51761;42.126;24.752;2023-04-10T09:22:31;99693.00;;;14.39;41.52
65175;BME280;51761;42.126;24.752;2023-04-10T09:24:58;99713.44;;;14.39;42.09
65175;BME280;51761;42.126;24.752;2023-04-10T09:29:56;99707.13;;;13.79;43.23
65175;BME280;51761;42.126;24.752;2023-04-10T09:32:41;99693.03;;;13.66;44.11
65175;BME280;51761;42.126;24.752;2023-04-10T09:35:08;99695.63;;;13.89;44.18
65175;BME280;51761;42.126;24.752;2023-04-10T09:37:35;99686.31;;;13.64;44.58
65175;BME280;51761;42.126;24.752;2023-04-10T09:40:01;99699.06;;;13.81;45.54
65175;BME280;51761;42.126;24.752;2023-04-10T09:44:57;99695.00;;;13.82;45.56
65175;BME280;51761;42.126;24.752;2023-04-10T09:47:23;99711.78;;;13.85;44.78
65175;BME280;51761;42.126;24.752;2023-04-10T09:49:49;99701.16;;;13.77;45.43
65175;BME280;51761;42.126;24.752;2023-04-10T09:54:49;99705.25;;;13.88;46.52
65175;BME280;51761;42.126;24.752;2023-04-10T09:57:18;99704.28;;;13.95;45.98
65175;BME280;51761;42.126;24.752;2023-04-10T09:59:52;99701.03;;;13.96;45.31
65175;BME280;51761;42.126;24.752;2023-04-10T10:02:19;99676.94;;;13.83;45.87
65175;BME280;51761;42.126;24.752;2023-04-10T10:04:46;99686.94;;;13.84;45.84
65175;BME280;51761;42.126;24.752;2023-04-10T10:07:20;99694.00;;;14.04;46.13
65175;BME280;51761;42.126;24.752;2023-04-10T10:09:48;99692.31;;;13.78;46.88
65175;BME280;51761;42.126;24.752;2023-04-10T10:12:43;99700.34;;;13.92;47.05
65175;BME280;51761;42.126;24.752;2023-04-10T10:18:27;99699.78;;;13.69;47.84
65175;BME280;51761;42.126;24.752;2023-04-10T10:20:27;99698.56;;;13.70;48.39
65175;BME280;51761;42.126;24.752;2023-04-10T10:22:57;99697.69;;;13.73;49.80
65175;BME280;51761;42.126;24.752;2023-04-10T10:25:23;99694.94;;;13.69;50.06
65175;BME280;51761;42.126;24.752;2023-04-10T10:27:50;99677.38;;;13.53;50.83
65175;BME280;51761;42.126;24.752;2023-04-10T10:30:19;99689.31;;;13.41;51.08
65175;BME280;51761;42.126;24.752;2023-04-10T10:32:45;99692.13;;;13.41;50.31
65175;BME280;51761;42.126;24.752;2023-04-10T10:35:12;99694.94;;;13.41;51.04
65175;BME280;51761;42.126;24.752;2023-04-10T10:37:38;99691.44;;;13.37;50.94
65175;BME280;51761;42.126;24.752;2023-04-10T10:40:22;99683.97;;;13.30;50.04
65175;BME280;51761;42.126;24.752;2023-04-10T10:43:13;99658.50;;;13.09;49.89
65175;BME280;51761;42.126;24.752;2023-04-10T10:45:54;99660.78;;;13.14;49.66
65175;BME280;51761;42.126;24.752;2023-04-10T10:48:22;99675.19;;;13.44;50.13
65175;BME280;51761;42.126;24.752;2023-04-10T10:50:53;99657.09;;;13.33;49.73
65175;BME280;51761;42.126;24.752;2023-04-10T10:53:36;99664.84;;;13.41;49.66
65175;BME280;51761;42.126;24.752;2023-04-10T10:58:54;99678.72;;;13.77;50.06
65175;BME280;51761;42.126;24.752;2023-04-10T11:01:22;99651.13;;;13.59;50.23
65175;BME280;51761;42.126;24.752;2023-04-10T11:03:48;99642.31;;;13.73;49.68
65175;BME280;51761;42.126;24.752;2023-04-10T11:06:17;99644.16;;;13.80;49.33
65175;BME280;51761;42.126;24.752;2023-04-10T11:08:48;99667.88;;;13.91;48.34
65175;BME280;51761;42.126;24.752;2023-04-10T11:16:14;99659.75;;;13.52;49.73
65175;BME280;51761;42.126;24.752;2023-04-10T11:21:12;99659.06;;;13.77;50.17
65175;BME280;51761;42.126;24.752;2023-04-10T11:31:45;99646.34;;;13.44;50.78
65175;BME280;51761;42.126;24.752;2023-04-10T11:34:11;99651.41;;;13.65;50.00
65175;BME280;51761;42.126;24.752;2023-04-10T11:36:39;99642.91;;;13.52;49.38
65175;BME280;51761;42.126;24.752;2023-04-10T11:41:59;99665.44;;;13.65;49.90
65175;BME280;51761;42.126;24.752;2023-04-10T11:44:32;99658.59;;;13.50;50.44
65175;BME280;51761;42.126;24.752;2023-04-10T11:47:03;99667.03;;;13.50;51.22
65175;BME280;51761;42.126;24.752;2023-04-10T11:49:30;99658.72;;;13.30;52.64
65175;BME280;51761;42.126;24.752;2023-04-10T11:51:57;99663.47;;;13.33;53.01
65175;BME280;51761;42.126;24.752;2023-04-10T11:54:26;99637.72;;;13.06;53.31
65175;BME280;51761;42.126;24.752;2023-04-10T11:59:22;99659.88;;;12.85;54.78
65175;BME280;51761;42.126;24.752;2023-04-10T12:01:49;99651.00;;;12.86;55.03
65175;BME280;51761;42.126;24.752;2023-04-10T12:04:20;99627.09;;;12.50;55.04
65175;BME280;51761;42.126;24.752;2023-04-10T12:06:47;99652.94;;;12.73;55.18
65175;BME280;51761;42.126;24.752;2023-04-10T12:09:14;99640.16;;;12.72;55.28
65175;BME280;51761;42.126;24.752;2023-04-10T12:11:51;99639.44;;;12.84;54.95
65175;BME280;51761;42.126;24.752;2023-04-10T12:14:17;99617.38;;;12.86;55.29
65175;BME280;51761;42.126;24.752;2023-04-10T12:16:43;99642.38;;;12.97;55.03
65175;BME280;51761;42.126;24.752;2023-04-10T12:19:10;99622.56;;;13.04;54.64
65175;BME280;51761;42.126;24.752;2023-04-10T12:21:37;99603.66;;;13.08;53.53
65175;BME280;51761;42.126;24.752;2023-04-10T12:24:04;99621.31;;;13.37;53.09
65175;BME280;51761;42.126;24.752;2023-04-10T12:26:30;99630.06;;;13.39;52.76
65175;BME280;51761;42.126;24.752;2023-04-10T12:28:56;99627.63;;;13.25;52.34
65175;BME280;51761;42.126;24.752;2023-04-10T12:31:27;99622.00;;;13.25;51.97
65175;BME280;51761;42.126;24.752;2023-04-10T12:33:52;99602.19;;;13.32;52.09
65175;BME280;51761;42.126;24.752;2023-04-10T12:36:23;99618.19;;;13.76;50.58
65175;BME280;51761;42.126;24.752;2023-04-10T12:38:51;99605.31;;;13.78;50.43
65175;BME280;51761;42.126;24.752;2023-04-10T12:41:25;99603.28;;;13.79;50.67
65175;BME280;51761;42.126;24.752;2023-04-10T12:43:52;99606.44;;;13.93;50.40
65175;BME280;51761;42.126;24.752;2023-04-10T12:46:26;99578.88;;;14.04;50.09
65175;BME280;51761;42.126;24.752;2023-04-10T12:48:52;99587.63;;;14.06;49.58
65175;BME280;51761;42.126;24.752;2023-04-10T12:51:18;99568.56;;;14.26;49.52
65175;BME280;51761;42.126;24.752;2023-04-10T12:53:44;99562.25;;;14.22;48.93
65175;BME280;51761;42.126;24.752;2023-04-10T12:56:10;99582.84;;;14.44;49.16
65175;BME280;51761;42.126;24.752;2023-04-10T12:58:37;99587.66;;;14.56;48.99
65175;BME280;51761;42.126;24.752;2023-04-10T13:01:06;99583.63;;;14.32;49.45
65175;BME280;51761;42.126;24.752;2023-04-10T13:03:34;99580.47;;;14.30;48.38
65175;BME280;51761;42.126;24.752;2023-04-10T13:06:01;99546.94;;;13.98;48.47
65175;BME280;51761;42.126;24.752;2023-04-10T13:08:26;99552.22;;;13.96;49.32
65175;BME280;51761;42.126;24.752;2023-04-10T13:10:52;99546.88;;;14.27;48.70
65175;BME280;51761;42.126;24.752;2023-04-10T13:13:19;99574.19;;;14.51;48.58
65175;BME280;51761;42.126;24.752;2023-04-10T13:15:45;99564.16;;;14.62;47.86
65175;BME280;51761;42.126;24.752;2023-04-10T13:18:10;99536.63;;;14.57;48.22
65175;BME280;51761;42.126;24.752;2023-04-10T13:20:37;99557.50;;;14.94;47.36
65175;BME280;51761;42.126;24.752;2023-04-10T13:23:03;99522.84;;;14.97;46.61
65175;BME280;51761;42.126;24.752;2023-04-10T13:25:33;99542.59;;;15.40;46.35
65175;BME280;51761;42.126;24.752;2023-04-10T13:28:00;99545.03;;;15.50;45.59
65175;BME280;51761;42.126;24.752;2023-04-10T13:30:26;99521.13;;;14.99;45.02
65175;BME280;51761;42.126;24.752;2023-04-10T13:32:52;99538.16;;;15.17;45.79
65175;BME280;51761;42.126;24.752;2023-04-10T13:35:18;99533.72;;;15.07;45.56